MET'MAP v2.0
soon released !

Expected late october,
this new version will be
more efficient, smarter,
and hosted on a brand new
server x3 powerfull...
...and still free !


Not compatible ?
Try the mobile version !

LOG IN : | Subscribe | Disclaimer | Who is Orbifly ? |
ICAO code :

TAF - GMMI Mogador Int. - 27 May 2020 18:15 UTC - Data Source NOAA   


- Airport Elevation : 384 ft
- IATA code : ESU
- No reported NOTAMs.


GMMI - Mogador Int.

Latest METAR recorded : 2015/08/11 08:00 GMMI 110800Z VRB02KT 6000 NSC 26/19 Q1013 NOSIG
TAF TAF GMMI
Valid from the 27 at 12:00 until the 28 at 18:00 UTC


271100Z 2712/2818 36009KT 8000 NSC

Source NOAA


MET'MAP, your aeronautical weather chart ! - Copyright ORBIFLY December 2007

Programming & Development : Alexandra Zaïnal
Co-Developer : Marc-Olivier Méhu
Technical & hardware support : Manuel Goepfert
Concept & Financing : Baudouin d'Aumeries